createdAt,value
2018-11-01T00:00:02.896Z,71.90
2018-11-01T00:02:33.325Z,72.10
2018-11-01T00:05:03.433Z,72.20
2018-11-01T00:07:33.750Z,72.40
2018-11-01T00:10:03.182Z,72.50
2018-11-01T00:12:33.793Z,72.60
2018-11-01T00:15:03.194Z,72.70
2018-11-01T00:17:33.622Z,72.50
2018-11-01T00:20:02.897Z,72.70
2018-11-01T00:22:32.334Z,72.70
2018-11-01T00:25:01.682Z,72.80
2018-11-01T00:27:31.125Z,72.90
2018-11-01T00:30:01.157Z,72.90
2018-11-01T00:32:30.654Z,73.00
2018-11-01T00:34:59.802Z,73.20
2018-11-01T00:37:29.672Z,73.30
2018-11-01T00:39:59.166Z,73.50
2018-11-01T00:42:28.338Z,73.60
2018-11-01T00:44:57.649Z,73.70
2018-11-01T00:47:26.981Z,73.80
2018-11-01T00:49:57.291Z,74.00
2018-11-01T00:52:26.785Z,74.10
2018-11-01T00:54:56.308Z,74.30
2018-11-01T00:57:25.814Z,74.30
2018-11-01T00:59:55.409Z,74.50
2018-11-01T01:02:24.710Z,74.70
2018-11-01T01:04:53.858Z,75.00
2018-11-01T01:07:23.925Z,75.00
2018-11-01T01:09:54.151Z,75.50
2018-11-01T01:12:24.149Z,75.60
2018-11-01T01:14:53.978Z,75.60
2018-11-01T01:17:23.502Z,75.60
2018-11-01T01:19:53.612Z,75.60
2018-11-01T01:22:22.588Z,75.70
2018-11-01T01:24:51.614Z,75.70
2018-11-01T01:27:21.405Z,75.80
2018-11-01T01:29:50.598Z,75.90
2018-11-01T01:32:19.868Z,75.90
2018-11-01T01:34:48.770Z,75.90
2018-11-01T01:37:18.294Z,75.90
2018-11-01T01:39:47.762Z,76.00
2018-11-01T01:42:16.985Z,76.20
2018-11-01T01:44:45.982Z,76.30
2018-11-01T01:47:14.994Z,76.40
2018-11-01T01:49:44.041Z,76.50
2018-11-01T01:52:13.337Z,76.50
2018-11-01T01:54:42.834Z,76.60
2018-11-01T01:57:11.886Z,76.50
2018-11-01T01:59:41.693Z,76.40
2018-11-01T02:02:10.687Z,76.20
2018-11-01T02:04:39.790Z,75.90
2018-11-01T02:07:09.520Z,75.60
2018-11-01T02:09:39.203Z,75.50
2018-11-01T02:12:09.534Z,75.30
2018-11-01T02:14:39.647Z,75.00
2018-11-01T02:17:08.725Z,75.00
2018-11-01T02:19:38.031Z,74.80
2018-11-01T02:22:07.361Z,74.70
2018-11-01T02:24:36.842Z,74.60
2018-11-01T02:27:06.242Z,74.40
2018-11-01T02:29:35.239Z,74.40
2018-11-01T02:32:04.352Z,74.20
2018-11-01T02:34:33.462Z,74.20
2018-11-01T02:37:02.625Z,74.10
2018-11-01T02:39:31.885Z,74.10
2018-11-01T02:42:02.114Z,74.00
2018-11-01T02:44:31.550Z,73.90
2018-11-01T02:47:00.640Z,73.70
2018-11-01T02:49:30.466Z,73.60
2018-11-01T02:51:59.758Z,73.60
2018-11-01T02:54:29.381Z,73.60
2018-11-01T02:56:58.435Z,73.60
2018-11-01T02:59:27.605Z,73.40
2018-11-01T03:01:56.833Z,73.10
2018-11-01T03:04:25.841Z,72.80
2018-11-01T03:06:55.043Z,72.80
2018-11-01T03:09:24.199Z,72.70
2018-11-01T03:11:53.546Z,72.70
2018-11-01T03:14:22.611Z,72.70
2018-11-01T03:16:51.843Z,72.80
2018-11-01T03:19:20.908Z,72.80
2018-11-01T03:21:50.134Z,72.80
2018-11-01T03:24:19.497Z,72.80
2018-11-01T03:26:48.933Z,72.80
2018-11-01T03:29:18.137Z,72.90
2018-11-01T03:31:47.426Z,73.00
2018-11-01T03:34:16.511Z,74.00
2018-11-01T03:36:45.830Z,73.00
2018-11-01T03:39:15.235Z,72.90
2018-11-01T03:41:44.534Z,72.70
2018-11-01T03:44:13.663Z,72.50
2018-11-01T03:46:43.139Z,72.30
2018-11-01T03:49:12.213Z,72.10
2018-11-01T03:51:41.306Z,71.90
2018-11-01T03:54:10.233Z,72.20
2018-11-01T03:56:39.974Z,72.10
2018-11-01T03:59:10.060Z,71.90
2018-11-01T04:01:40.010Z,71.80
2018-11-01T04:04:09.241Z,71.60
2018-11-01T04:06:38.320Z,71.60
2018-11-01T04:09:10.034Z,71.70
2018-11-01T04:11:39.313Z,71.60
2018-11-01T04:14:09.054Z,71.60
2018-11-01T04:16:38.427Z,71.60
2018-11-01T04:19:07.786Z,71.50
2018-11-01T04:21:36.837Z,71.50
